Time;durP1;ratioP1;P1;durP2;ratioP2;P2;SDS_P1;SDS_P2;PMS_P1;PMS_P2;Temp;Humidity;BMP_temperature;BMP_pressure;BME280_temperature;BME280_humidity;BME280_pressure;Samples;Min_cycle;Max_cycle;Signal;HPM_P1;HPM_P2
2022/06/06 00:01:24;;;;;;;9.50;3.27;;;;;;;23.57;35.34;98629.28;4487792;32;20574;-83
2022/06/06 00:03:50;;;;;;;6.60;2.87;;;;;;;23.55;35.54;98618.69;4487724;32;20160;-82
2022/06/06 00:06:19;;;;;;;7.47;3.10;;;;;;;23.53;35.55;98620.69;4487725;32;20391;-82
2022/06/06 00:08:45;;;;;;;6.95;2.95;;;;;;;23.51;35.57;98613.84;4473121;32;20104;-82
2022/06/06 00:11:11;;;;;;;8.60;3.22;;;;;;;23.41;35.70;98602.41;4473488;32;20122;-83
2022/06/06 00:13:39;;;;;;;8.48;3.20;;;;;;;23.29;35.87;98604.59;4487654;32;20163;-82
2022/06/06 00:16:05;;;;;;;7.55;3.22;;;;;;;23.28;35.97;98605.63;4487457;32;20147;-83
2022/06/06 00:18:32;;;;;;;8.13;2.92;;;;;;;23.29;35.94;98602.75;4473299;32;20104;-82
2022/06/06 00:20:57;;;;;;;7.93;3.20;;;;;;;23.28;35.92;98597.56;4487582;32;20080;-83
2022/06/06 00:23:23;;;;;;;6.65;2.97;;;;;;;23.22;36.30;98603.59;4473320;32;20084;-83
2022/06/06 00:25:49;;;;;;;6.97;3.15;;;;;;;23.17;36.10;98612.16;4487399;32;20484;-82
2022/06/06 00:28:14;;;;;;;8.38;2.90;;;;;;;23.17;36.18;98604.94;4473168;32;20104;-83
2022/06/06 00:30:40;;;;;;;6.47;2.72;;;;;;;23.08;36.29;98608.66;4487538;32;20114;-83
2022/06/06 00:35:49;;;;;;;8.90;3.40;;;;;;;23.09;36.40;98610.31;4475556;32;20155;-83
2022/06/06 00:38:15;;;;;;;8.40;3.30;;;;;;;23.07;36.50;98608.81;4473065;32;20108;-83
2022/06/06 00:40:40;;;;;;;6.70;2.83;;;;;;;23.07;36.53;98614.19;4487357;32;20456;-82
2022/06/06 00:43:06;;;;;;;7.87;3.00;;;;;;;23.09;36.56;98621.06;4460144;32;20084;-83
2022/06/06 00:45:35;;;;;;;9.73;3.55;;;;;;;23.14;36.51;98629.47;4487340;32;20132;-83
2022/06/06 00:48:31;;;;;;;7.75;3.30;;;;;;;23.07;36.72;98628.47;4487058;32;20623;-83
2022/06/06 00:51:09;;;;;;;6.07;2.72;;;;;;;23.18;36.72;98624.62;4487339;32;20742;-83
2022/06/06 00:53:45;;;;;;;8.40;3.35;;;;;;;23.07;36.79;98625.78;4473122;32;20155;-83
2022/06/06 00:56:22;;;;;;;8.98;3.28;;;;;;;23.01;37.03;98639.03;4460033;32;20124;-83
2022/06/06 00:58:50;;;;;;;7.47;3.20;;;;;;;22.98;37.24;98637.50;4473132;32;20396;-83
2022/06/06 01:01:16;;;;;;;8.52;3.58;;;;;;;23.02;37.31;98640.69;4473019;32;20123;-83
2022/06/06 01:03:41;;;;;;;7.80;3.30;;;;;;;22.92;37.43;98641.69;4472924;32;20096;-83
2022/06/06 01:06:10;;;;;;;8.05;3.50;;;;;;;22.95;37.52;98657.47;4472971;32;20109;-83
2022/06/06 01:08:37;;;;;;;7.40;3.08;;;;;;;22.94;37.60;98660.31;4486997;32;20100;-83
2022/06/06 01:11:03;;;;;;;;;;;;;;;22.93;37.70;98675.59;4473299;32;20104;-83
2022/06/06 01:13:29;;;;;;;7.57;3.08;;;;;;;23.00;37.79;98678.47;4487339;32;19968;-83
2022/06/06 01:16:14;;;;;;;7.62;3.33;;;;;;;22.97;37.87;98679.62;4487208;32;20124;-83
2022/06/06 01:19:01;;;;;;;9.82;3.50;;;;;;;23.01;37.98;98679.31;4487203;32;20106;-83
2022/06/06 01:21:44;;;;;;;7.82;3.30;;;;;;;23.03;38.01;98670.09;4487443;32;20088;-83
2022/06/06 01:24:28;;;;;;;9.00;3.20;;;;;;;23.08;37.97;98683.91;4487007;32;20147;-83
2022/06/06 01:26:54;;;;;;;8.25;3.42;;;;;;;23.06;38.07;98687.72;4487178;32;20072;-83
2022/06/06 01:29:23;;;;;;;8.93;3.50;;;;;;;23.07;38.02;98695.63;4486858;32;20107;-83
2022/06/06 01:31:55;;;;;;;7.05;3.47;;;;;;;23.11;38.07;98693.47;4487213;32;20056;-83
2022/06/06 01:34:25;;;;;;;8.38;3.53;;;;;;;23.23;37.66;98691.28;4473291;32;20367;-82
2022/06/06 01:36:52;;;;;;;10.48;3.50;;;;;;;23.23;37.68;98699.34;4473146;32;20085;-83
2022/06/06 01:39:20;;;;;;;8.95;3.75;;;;;;;23.27;37.67;98709.59;4472745;32;20553;-83
2022/06/06 01:42:07;;;;;;;8.30;3.60;;;;;;;23.23;38.25;98702.88;4472831;32;20137;-83
2022/06/06 01:44:53;;;;;;;9.32;3.28;;;;;;;23.28;37.96;98711.28;4487035;32;20069;-83
2022/06/06 01:47:26;;;;;;;8.00;3.35;;;;;;;23.33;37.73;98724.22;4475802;32;20098;-83
2022/06/06 01:49:54;;;;;;;7.87;3.55;;;;;;;23.42;37.35;98722.38;4460255;32;20132;-83
2022/06/06 01:52:20;;;;;;;8.70;3.28;;;;;;;23.41;37.35;98715.31;4486930;32;20155;-83
2022/06/06 01:54:45;;;;;;;9.20;3.83;;;;;;;23.23;37.79;98729.75;4472533;32;20084;-83
2022/06/06 01:57:14;;;;;;;7.72;3.35;;;;;;;23.29;37.83;98726.38;4486729;32;20089;-83
2022/06/06 01:59:39;;;;;;;8.10;3.42;;;;;;;23.28;37.77;98737.31;4471759;32;20531;-83
2022/06/06 02:02:05;;;;;;;7.78;3.53;;;;;;;23.32;37.69;98744.03;4486783;32;20080;-83
2022/06/06 02:04:30;;;;;;;8.55;3.92;;;;;;;23.06;38.56;98754.91;4486743;32;20107;-83
2022/06/06 02:06:56;;;;;;;7.68;3.55;;;;;;;22.92;39.09;98772.47;4486760;32;20400;-83
2022/06/06 02:09:22;;;;;;;6.80;3.17;;;;;;;22.89;39.11;98775.47;4486420;32;20088;-83
2022/06/06 02:11:47;;;;;;;9.05;3.85;;;;;;;22.96;39.09;98790.78;4472521;32;20368;-82
2022/06/06 02:14:13;;;;;;;8.23;3.37;;;;;;;23.05;39.08;98791.69;4486624;32;20115;-83
2022/06/06 02:16:39;;;;;;;8.73;3.62;;;;;;;23.06;39.13;98789.84;4486642;32;20159;-82
2022/06/06 02:19:05;;;;;;;7.05;3.25;;;;;;;23.09;39.22;98770.72;4472324;32;20136;-83
2022/06/06 02:21:31;;;;;;;8.93;3.50;;;;;;;23.17;39.08;98766.19;4472371;32;20126;-83
2022/06/06 02:23:57;;;;;;;9.43;3.37;;;;;;;23.19;39.24;98754.44;4472352;32;20084;-82
2022/06/06 02:26:22;;;;;;;7.55;3.40;;;;;;;23.22;39.39;98752.28;4486350;32;20098;-82
2022/06/06 02:28:48;;;;;;;9.48;3.75;;;;;;;23.25;39.25;98738.47;4486475;32;20376;-83
2022/06/06 02:31:13;;;;;;;8.43;3.65;;;;;;;23.13;38.35;98734.44;4486480;32;20092;-83
2022/06/06 02:33:39;;;;;;;8.13;3.70;;;;;;;22.98;38.90;98734.19;4471991;32;20084;-82
2022/06/06 02:36:05;;;;;;;8.40;3.40;;;;;;;23.03;38.80;98734.59;4486334;32;20080;-83
2022/06/06 02:38:32;;;;;;;8.68;3.53;;;;;;;22.96;38.88;98738.91;4472036;32;20125;-83
2022/06/06 02:41:07;;;;;;;7.90;3.50;;;;;;;22.82;39.29;98748.44;4486259;32;20160;-83
2022/06/06 02:43:42;;;;;;;7.32;3.50;;;;;;;22.92;39.56;98751.81;4486221;32;20088;-83
2022/06/06 02:46:09;;;;;;;9.63;3.25;;;;;;;22.95;39.65;98753.34;4472165;32;20097;-82
2022/06/06 02:48:35;;;;;;;7.62;3.70;;;;;;;23.08;39.57;98750.22;4486114;32;20088;-83
2022/06/06 02:51:02;;;;;;;8.88;3.70;;;;;;;23.12;39.81;98756.94;4486066;32;20111;-82
2022/06/06 02:53:28;;;;;;;7.73;3.53;;;;;;;23.07;39.79;98757.44;4486196;32;20123;-83
2022/06/06 02:55:54;;;;;;;8.80;3.85;;;;;;;23.09;39.71;98763.47;4458688;32;20076;-82
2022/06/06 02:58:20;;;;;;;8.40;3.60;;;;;;;23.06;39.87;98762.97;4485984;32;20107;-82
2022/06/06 03:00:46;;;;;;;9.38;3.87;;;;;;;23.07;39.91;98764.66;4471878;32;20093;-82
2022/06/06 03:03:12;;;;;;;7.82;3.55;;;;;;;23.12;39.96;98759.63;4485824;32;20080;-82
2022/06/06 03:06:09;;;;;;;8.23;3.58;;;;;;;23.16;39.67;98767.19;4471671;32;20132;-82
2022/06/06 03:08:58;;;;;;;9.23;3.37;;;;;;;23.02;39.73;98766.97;4436746;32;20114;-82
2022/06/06 03:11:43;;;;;;;7.60;3.47;;;;;;;23.17;39.21;98768.88;4425810;32;20790;-82
2022/06/06 03:14:23;;;;;;;9.65;3.80;;;;;;;23.09;39.30;98754.59;4426307;32;20189;-82
2022/06/06 03:23:45;;;;;;;8.00;3.50;;;;;;;23.06;40.21;98741.47;4439136;32;20172;-82
2022/06/06 03:26:31;;;;;;;10.73;3.25;;;;;;;22.99;40.43;98733.22;4438501;32;20146;-83
2022/06/06 03:29:03;;;;;;;8.90;3.35;;;;;;;23.10;40.62;98734.75;4438846;32;20408;-82
2022/06/06 03:31:34;;;;;;;9.15;3.78;;;;;;;23.09;40.87;98739.31;4438920;32;20535;-83
2022/06/06 03:34:10;;;;;;;8.18;3.67;;;;;;;23.19;40.93;98725.72;4439036;32;20117;-82
2022/06/06 03:36:41;;;;;;;9.15;3.33;;;;;;;23.08;40.96;98721.50;4426061;32;20459;-83
2022/06/06 03:39:13;;;;;;;9.30;3.60;;;;;;;23.15;40.72;98721.69;4426145;32;20102;-83
2022/06/06 03:42:02;;;;;;;8.25;3.40;;;;;;;23.09;38.74;98717.81;4426112;32;20124;-83
2022/06/06 03:44:27;;;;;;;8.10;3.65;;;;;;;23.00;39.18;98715.25;4443822;32;20084;-83
2022/06/06 03:47:12;;;;;;;8.85;3.87;;;;;;;23.02;39.37;98711.38;4487874;32;20113;-83
2022/06/06 03:50:02;;;;;;;8.50;3.75;;;;;;;23.04;39.70;98706.69;4487688;32;20446;-83
2022/06/06 03:52:45;;;;;;;9.95;3.72;;;;;;;23.21;40.17;98704.06;4487896;32;20100;-83
2022/06/06 03:55:13;;;;;;;8.60;3.60;;;;;;;23.27;40.08;98696.16;4473534;32;20108;-83
2022/06/06 03:57:42;;;;;;;7.45;3.33;;;;;;;23.13;40.00;98707.56;4487890;32;20071;-82
2022/06/06 04:00:14;;;;;;;6.90;3.42;;;;;;;23.22;39.85;98697.66;4473753;32;20076;-83
2022/06/06 04:02:42;;;;;;;9.48;3.87;;;;;;;23.38;39.32;98692.28;4487774;32;20488;-83
2022/06/06 04:05:11;;;;;;;7.45;3.28;;;;;;;23.20;39.72;98687.09;4487729;32;20107;-82
2022/06/06 04:07:36;;;;;;;8.98;4.05;;;;;;;23.17;39.71;98690.94;4473352;32;20436;-83
2022/06/06 04:10:03;;;;;;;9.00;3.75;;;;;;;23.26;39.51;98685.59;4487412;32;20103;-83
2022/06/06 04:12:54;;;;;;;7.80;3.37;;;;;;;23.25;39.22;98687.41;4473592;32;20097;-83
2022/06/06 04:15:38;;;;;;;8.48;3.70;;;;;;;23.20;39.10;98683.53;4473401;32;20168;-83
2022/06/06 04:18:26;;;;;;;7.60;3.58;;;;;;;22.94;40.12;98689.87;4487688;32;20446;-83
2022/06/06 04:21:25;;;;;;;8.13;3.70;;;;;;;22.92;40.31;98681.97;4487566;32;20089;-82
2022/06/06 04:24:14;;;;;;;10.93;3.37;;;;;;;22.92;40.55;98686.50;4486923;32;20101;-83
2022/06/06 04:26:51;;;;;;;8.55;3.47;;;;;;;22.80;41.01;98690.53;4478938;32;20161;-83
2022/06/06 04:29:27;;;;;;;9.20;4.20;;;;;;;22.66;41.56;98690.16;4487484;32;20489;-83
2022/06/06 04:32:31;;;;;;;10.65;3.75;;;;;;;22.75;41.63;98693.69;4473349;32;20222;-83
2022/06/06 04:35:26;;;;;;;7.47;3.35;;;;;;;22.86;40.87;98697.91;4423214;32;20136;-83
2022/06/06 04:38:08;;;;;;;10.18;3.87;;;;;;;22.80;40.99;98699.41;4410442;32;20284;-82
2022/06/06 04:40:40;;;;;;;8.60;3.55;;;;;;;22.99;39.51;98714.41;4410396;32;20086;-83
2022/06/06 04:43:33;;;;;;;9.15;3.50;;;;;;;22.97;39.99;98714.56;4422989;32;20577;-83
2022/06/06 04:46:20;;;;;;;8.23;3.60;;;;;;;23.16;39.18;98716.16;4423180;32;20117;-83
2022/06/06 04:48:46;;;;;;;8.43;3.20;;;;;;;23.24;39.10;98720.69;4410317;32;20168;-83
2022/06/06 04:51:16;;;;;;;8.60;3.40;;;;;;;23.31;39.29;98715.47;4410171;32;20183;-83
2022/06/06 04:53:43;;;;;;;8.55;3.60;;;;;;;23.53;39.13;98722.88;4423049;32;20112;-83
2022/06/06 04:56:09;;;;;;;6.70;3.30;;;;;;;23.60;38.81;98727.56;4423172;32;20106;-82
2022/06/06 04:58:35;;;;;;;8.07;3.67;;;;;;;23.63;38.91;98717.34;4423242;32;20356;-83
2022/06/06 05:01:02;;;;;;;7.55;3.40;;;;;;;23.83;39.39;98723.22;4423296;32;20085;-82
2022/06/06 05:03:28;;;;;;;9.80;3.62;;;;;;;24.05;39.48;98719.00;4422662;32;20097;-81
2022/06/06 05:06:19;;;;;;;8.45;3.67;;;;;;;24.21;39.48;98731.56;4422891;32;20521;-83
2022/06/06 05:09:20;;;;;;;8.63;3.75;;;;;;;24.36;39.96;98729.00;4446081;32;20475;-83
2022/06/06 05:12:04;;;;;;;7.70;3.60;;;;;;;24.41;39.88;98732.00;4476056;32;20107;-83
2022/06/06 05:14:50;;;;;;;8.15;3.72;;;;;;;24.59;39.83;98733.63;4487475;32;20077;-85
2022/06/06 05:17:31;;;;;;;9.77;3.97;;;;;;;24.82;39.34;98734.56;4487147;32;20148;-84
2022/06/06 05:20:19;;;;;;;9.48;3.87;;;;;;;24.96;39.31;98732.97;4472990;32;20464;-84
2022/06/06 05:23:13;;;;;;;10.57;3.75;;;;;;;25.01;39.00;98744.03;4492548;31;20536;-84
2022/06/06 05:25:48;;;;;;;8.23;3.62;;;;;;;25.06;39.83;98743.50;4487166;32;20100;-84
2022/06/06 05:28:37;;;;;;;8.98;3.78;;;;;;;25.04;40.11;98745.53;4487170;32;20119;-84
2022/06/06 05:31:47;;;;;;;7.85;3.58;;;;;;;25.08;40.31;98747.69;4487103;32;20454;-82
2022/06/06 05:34:35;;;;;;;9.25;3.75;;;;;;;25.23;40.22;98747.81;4421572;32;20114;-83
2022/06/06 05:37:15;;;;;;;8.27;3.97;;;;;;;25.27;40.42;98757.22;4409854;32;20161;-83
2022/06/06 05:40:05;;;;;;;9.45;4.05;;;;;;;25.32;40.14;98762.06;4422725;32;20291;-82
2022/06/06 05:42:52;;;;;;;8.13;3.67;;;;;;;25.46;40.09;98761.31;4419604;32;20256;-80
2022/06/06 05:45:39;;;;;;;10.77;3.80;;;;;;;25.56;40.24;98763.75;4419456;32;20089;-79
2022/06/06 05:48:29;;;;;;;8.20;3.65;;;;;;;25.59;40.04;98765.25;4420721;32;20110;-79
2022/06/06 05:51:26;;;;;;;9.65;4.05;;;;;;;25.60;40.45;98762.38;4406224;32;20102;-79
2022/06/06 05:54:19;;;;;;;9.60;4.40;;;;;;;25.64;40.63;98760.97;4400234;32;20124;-79
2022/06/06 05:56:56;;;;;;;9.77;4.45;;;;;;;25.74;40.92;98757.22;4414700;32;20230;-79
2022/06/06 05:59:34;;;;;;;10.20;4.43;;;;;;;25.29;42.27;98763.28;4421476;32;20327;-80
2022/06/06 06:02:09;;;;;;;10.32;4.95;;;;;;;25.48;42.15;98761.13;4422543;32;20584;-80
2022/06/06 06:04:43;;;;;;;11.32;4.32;;;;;;;25.53;42.62;98769.50;4422517;32;20102;-80
2022/06/06 06:07:35;;;;;;;9.77;4.43;;;;;;;25.64;42.63;98765.56;4401127;32;20089;-79
2022/06/06 06:10:34;;;;;;;11.05;4.53;;;;;;;25.60;43.09;98764.25;4479031;31;20115;-78
2022/06/06 06:13:02;;;;;;;10.57;4.75;;;;;;;25.61;42.82;98771.28;4480476;31;20104;-78
2022/06/06 06:15:32;;;;;;;9.88;4.25;;;;;;;25.54;42.95;98768.50;4488560;31;20092;-78
2022/06/06 06:18:00;;;;;;;10.00;4.50;;;;;;;25.52;43.36;98757.06;4485382;32;20092;-78
2022/06/06 06:20:32;;;;;;;9.40;4.40;;;;;;;25.43;43.73;98755.44;4485377;32;20482;-78
2022/06/06 06:23:03;;;;;;;9.65;4.70;;;;;;;25.22;44.29;98756.03;4485277;32;20101;-79
2022/06/06 06:25:35;;;;;;;10.63;4.62;;;;;;;24.98;44.95;98759.75;4472263;32;20138;-77
2022/06/06 06:28:07;;;;;;;9.30;4.35;;;;;;;25.04;45.04;98767.09;4481962;31;20158;-80
2022/06/06 06:30:55;;;;;;;9.70;4.40;;;;;;;25.13;44.91;98771.44;4494620;31;20156;-79
2022/06/06 06:33:44;;;;;;;9.23;4.37;;;;;;;25.20;44.76;98774.25;4481492;31;20220;-81
2022/06/06 06:36:16;;;;;;;;;;;;;;;25.34;44.16;98770.81;4491234;31;20088;-80
2022/06/06 06:38:44;;;;;;;10.38;3.92;;;;;;;25.54;43.80;98783.84;4502136;31;19994;-79
2022/06/06 06:41:18;;;;;;;9.68;3.95;;;;;;;25.64;43.75;98787.13;4502077;31;20098;-79
2022/06/06 06:44:00;;;;;;;9.48;4.32;;;;;;;25.52;44.01;98786.72;4501987;31;20096;-80
2022/06/06 06:46:31;;;;;;;9.45;4.30;;;;;;;25.76;43.42;98787.53;4493988;31;20490;-79
2022/06/06 06:49:31;;;;;;;10.65;4.90;;;;;;;25.69;42.77;98780.19;4481201;31;20410;-80
2022/06/06 06:52:19;;;;;;;10.32;4.10;;;;;;;25.76;42.36;98787.53;4477820;31;20395;-80
2022/06/06 06:55:02;;;;;;;10.65;4.53;;;;;;;26.12;41.10;98779.66;4488279;31;20152;-79
2022/06/06 06:57:37;;;;;;;9.23;4.62;;;;;;;26.27;41.30;98777.81;4488103;31;20118;-80
2022/06/06 07:00:08;;;;;;;9.63;4.20;;;;;;;26.40;41.37;98781.72;4488286;32;20093;-79
2022/06/06 07:08:39;;;;;;;8.43;3.80;;;;;;;26.65;39.28;98774.22;4488103;32;20161;-80
2022/06/06 07:11:23;;;;;;;9.77;4.80;;;;;;;26.68;39.55;98771.12;4488122;31;20127;-79
2022/06/06 07:13:48;;;;;;;9.38;4.07;;;;;;;26.78;40.39;98765.44;4488079;31;20446;-80
2022/06/06 07:16:33;;;;;;;10.07;3.90;;;;;;;27.04;39.81;98771.19;4488126;31;20093;-80
2022/06/06 07:19:01;;;;;;;9.77;4.53;;;;;;;27.16;39.63;98773.34;4486928;32;20171;-79
2022/06/06 07:21:28;;;;;;;8.88;4.03;;;;;;;27.32;39.68;98772.34;4488138;31;20118;-79
2022/06/06 07:23:56;;;;;;;9.00;4.32;;;;;;;27.21;40.06;98777.16;4486926;32;20088;-80
2022/06/06 07:26:21;;;;;;;8.40;4.20;;;;;;;27.21;38.97;98777.16;4486774;32;20247;-80
2022/06/06 07:28:47;;;;;;;8.93;3.75;;;;;;;27.09;38.96;98778.72;4486705;32;20473;-79
2022/06/06 07:31:51;;;;;;;9.10;4.30;;;;;;;27.19;39.43;98779.22;4486777;32;20374;-81
2022/06/06 07:34:26;;;;;;;9.43;4.10;;;;;;;27.08;37.12;98782.44;4481485;31;20076;-80
2022/06/06 07:37:04;;;;;;;9.98;4.03;;;;;;;27.25;36.84;98789.34;4495980;31;20760;-81
2022/06/06 07:39:34;;;;;;;7.90;3.62;;;;;;;27.07;35.20;98786.16;4496157;31;20096;-80
2022/06/06 07:42:15;;;;;;;9.40;4.35;;;;;;;27.19;35.30;98783.81;4481656;31;20143;-80
2022/06/06 07:44:50;;;;;;;8.20;3.60;;;;;;;27.11;34.44;98784.75;4494953;31;20134;-81
2022/06/06 07:47:18;;;;;;;7.82;3.53;;;;;;;27.48;34.17;98777.47;4490510;31;20250;-81
2022/06/06 07:49:57;;;;;;;8.65;3.90;;;;;;;27.67;34.11;98786.84;4495361;31;20242;-80
2022/06/06 07:52:26;;;;;;;9.10;3.92;;;;;;;27.51;34.36;98789.81;4476868;31;20481;-80
2022/06/06 07:55:07;;;;;;;7.82;3.85;;;;;;;27.54;34.74;98784.81;4472655;32;20088;-80
2022/06/06 07:57:48;;;;;;;9.52;4.20;;;;;;;27.66;33.89;98793.25;4481400;31;20157;-81
2022/06/06 08:00:18;;;;;;;9.10;4.20;;;;;;;27.82;34.15;98798.44;4502230;31;20104;-80
2022/06/06 08:02:52;;;;;;;8.38;3.90;;;;;;;27.51;34.38;98800.62;4487621;31;20081;-80
2022/06/06 08:05:21;;;;;;;9.32;3.90;;;;;;;27.85;34.27;98800.75;4484347;31;20118;-80
2022/06/06 08:08:35;;;;;;;8.55;3.55;;;;;;;27.99;33.70;98792.75;4502715;31;20142;-83
2022/06/06 08:11:23;;;;;;;8.63;3.62;;;;;;;27.70;34.00;98801.84;4453788;32;20137;-82
2022/06/06 08:13:57;;;;;;;9.18;3.60;;;;;;;27.80;33.35;98800.50;4396482;32;20438;-80
2022/06/06 08:16:29;;;;;;;8.88;3.85;;;;;;;27.88;33.08;98798.69;4418862;32;20084;-80
2022/06/06 08:19:22;;;;;;;8.80;3.90;;;;;;;27.64;33.88;98795.31;4399545;32;20297;-80
2022/06/06 08:21:49;;;;;;;8.80;3.97;;;;;;;28.00;33.23;98797.16;4366975;32;20464;-80
2022/06/06 08:24:34;;;;;;;;;;;;;;;27.83;33.39;98794.69;4374447;32;20113;-80
2022/06/06 08:27:01;;;;;;;9.70;3.83;;;;;;;27.90;32.00;98793.94;4367266;32;19982;-80
2022/06/06 08:29:28;;;;;;;8.75;3.72;;;;;;;27.51;32.30;98793.34;4368534;32;20111;-81
2022/06/06 08:31:54;;;;;;;8.80;3.92;;;;;;;27.40;32.45;98801.97;4373041;32;20114;-82
2022/06/06 08:34:21;;;;;;;11.35;4.07;;;;;;;27.40;31.83;98796.56;4364462;32;20455;-80
2022/06/06 08:37:18;;;;;;;8.80;3.95;;;;;;;27.45;32.21;98797.66;4369661;32;20459;-80
2022/06/06 08:40:05;;;;;;;7.90;3.90;;;;;;;27.52;32.93;98799.59;4317605;33;20108;-81
2022/06/06 08:42:39;;;;;;;8.30;3.50;;;;;;;27.37;32.75;98802.34;4318139;33;20179;-81
2022/06/06 08:45:42;;;;;;;9.57;3.92;;;;;;;27.42;33.54;98789.91;4300693;33;20114;-80
2022/06/06 08:48:25;;;;;;;8.13;3.67;;;;;;;27.48;32.37;98787.47;4338303;33;20556;-80
2022/06/06 08:51:01;;;;;;;7.53;3.83;;;;;;;27.64;33.99;98788.06;4359675;32;20091;-81
2022/06/06 08:53:43;;;;;;;8.52;4.00;;;;;;;27.77;33.53;98783.81;4376951;32;20102;-80
2022/06/06 08:56:39;;;;;;;8.32;3.72;;;;;;;27.70;33.33;98785.59;4389160;32;20116;-80
2022/06/06 08:59:23;;;;;;;9.48;4.37;;;;;;;27.93;34.47;98780.00;4410134;32;20085;-80
2022/06/06 09:02:18;;;;;;;9.60;4.10;;;;;;;27.92;33.85;98784.59;4428008;32;20118;-80
2022/06/06 09:04:58;;;;;;;8.70;3.97;;;;;;;27.91;32.64;98787.47;4414152;32;156918;-80
2022/06/06 09:08:03;;;;;;;8.65;4.10;;;;;;;27.81;32.91;98787.78;4434166;32;20240;-80
2022/06/06 09:11:06;;;;;;;8.00;3.90;;;;;;;27.90;31.88;98792.06;4435608;32;20093;-80
2022/06/06 09:14:09;;;;;;;7.55;3.75;;;;;;;28.11;32.46;98782.25;4427362;32;20174;-81
2022/06/06 09:17:05;;;;;;;7.85;3.87;;;;;;;27.85;31.47;98776.41;4456030;32;20108;-81
2022/06/06 09:19:58;;;;;;;7.78;3.72;;;;;;;27.87;31.73;98776.16;4487948;31;20083;-82
2022/06/06 09:22:52;;;;;;;9.00;3.87;;;;;;;27.61;31.60;98782.19;4488937;31;20115;-80
2022/06/06 09:25:34;;;;;;;8.65;3.62;;;;;;;27.59;31.86;98774.28;4494893;31;20101;-80
2022/06/06 09:28:44;;;;;;;9.63;4.28;;;;;;;27.42;30.32;98773.69;4487668;31;20152;-81
2022/06/06 09:31:18;;;;;;;7.68;3.58;;;;;;;27.41;30.63;98772.03;4453231;32;20428;-81
2022/06/06 09:33:52;;;;;;;9.10;3.90;;;;;;;26.63;32.96;98770.84;4463253;32;20434;-81
2022/06/06 09:36:39;;;;;;;7.87;3.70;;;;;;;26.99;32.07;98768.19;4442665;32;20347;-82
2022/06/06 09:39:33;;;;;;;8.05;3.50;;;;;;;27.14;32.87;98770.88;4462468;32;20109;-81
2022/06/06 09:42:25;;;;;;;7.72;3.67;;;;;;;27.24;31.02;98760.59;4443746;32;20448;-80
2022/06/06 09:45:11;;;;;;;8.05;3.75;;;;;;;26.71;30.37;98761.81;4440272;32;20518;-81
2022/06/06 09:48:14;;;;;;;7.20;3.12;;;;;;;27.05;29.54;98769.31;4462112;32;20427;-81
2022/06/06 09:50:59;;;;;;;8.48;3.40;;;;;;;27.42;30.17;98754.75;4465190;32;20131;-81
2022/06/06 09:53:43;;;;;;;7.10;3.40;;;;;;;27.54;30.48;98754.22;4461013;32;20084;-83
2022/06/06 09:59:38;;;;;;;8.15;3.10;;;;;;;27.38;28.70;98755.34;4448113;32;20281;-84
2022/06/06 10:02:24;;;;;;;7.28;3.10;;;;;;;27.41;29.24;98734.16;4467146;32;20096;-85
2022/06/06 10:05:19;;;;;;;6.93;3.22;;;;;;;27.50;29.06;98736.72;4476394;31;20083;-84
2022/06/06 10:08:01;;;;;;;7.75;3.40;;;;;;;27.67;28.86;98742.69;4487548;31;20114;-82
2022/06/06 10:10:48;;;;;;;9.25;3.33;;;;;;;27.53;28.60;98739.03;4487410;31;20134;-86
2022/06/06 10:13:22;;;;;;;8.18;3.30;;;;;;;27.39;28.24;98732.66;4487568;31;20166;-86
2022/06/06 10:15:52;;;;;;;7.40;3.45;;;;;;;27.49;29.21;98725.06;4501868;31;20088;-89
2022/06/06 10:18:30;;;;;;;8.57;3.33;;;;;;;27.59;29.54;98739.09;4488703;31;20103;-86
2022/06/06 10:21:02;;;;;;;8.82;3.78;;;;;;;27.58;29.03;98745.56;4470691;31;20109;-85
2022/06/06 10:23:33;;;;;;;6.97;2.95;;;;;;;27.59;29.64;98741.78;4493514;31;20191;-84
2022/06/06 10:26:11;;;;;;;9.70;3.17;;;;;;;27.37;28.81;98734.72;4493724;31;20098;-85
2022/06/06 10:28:40;;;;;;;6.37;2.90;;;;;;;27.35;29.00;98739.47;4495302;31;20079;-84
2022/06/06 10:31:05;;;;;;;8.77;2.95;;;;;;;27.49;28.49;98740.44;4494047;31;20143;-82
2022/06/06 10:33:49;;;;;;;8.18;3.58;;;;;;;27.48;28.88;98738.78;4495147;31;20436;-81
2022/06/06 10:36:23;;;;;;;6.75;3.28;;;;;;;27.43;29.53;98732.09;4499778;31;20447;-82
2022/06/06 10:39:10;;;;;;;7.32;2.90;;;;;;;27.35;28.98;98734.94;4497121;31;20101;-82
2022/06/06 10:41:47;;;;;;;8.48;3.65;;;;;;;27.38;26.75;98733.69;4489173;31;20147;-82
2022/06/06 10:44:16;;;;;;;6.97;3.30;;;;;;;27.32;28.20;98726.34;4498841;31;20084;-83
2022/06/06 10:47:00;;;;;;;7.05;3.22;;;;;;;27.41;28.70;98722.47;4489259;31;20159;-82
2022/06/06 10:49:39;;;;;;;7.55;3.50;;;;;;;27.65;29.30;98721.25;4492863;31;20107;-82
2022/06/06 10:52:05;;;;;;;7.87;3.47;;;;;;;27.62;28.89;98717.06;4498332;31;20172;-81
2022/06/06 10:54:52;;;;;;;7.18;3.00;;;;;;;27.60;28.75;98718.28;4488255;31;20112;-83
2022/06/06 10:57:48;;;;;;;7.97;3.20;;;;;;;27.58;27.86;98709.50;4493666;31;20114;-83
2022/06/06 11:00:18;;;;;;;8.80;2.97;;;;;;;27.65;27.99;98719.38;4498816;31;20199;-81
2022/06/06 11:02:52;;;;;;;6.43;2.90;;;;;;;27.33;28.16;98715.31;4486947;31;20143;-82
2022/06/06 11:05:49;;;;;;;6.60;3.08;;;;;;;27.54;27.76;98710.94;4493534;31;20104;-82
2022/06/06 11:08:14;;;;;;;5.82;2.72;;;;;;;27.65;26.54;98705.84;4498728;31;20429;-81
2022/06/06 11:11:09;;;;;;;8.27;2.87;;;;;;;27.77;26.70;98710.72;4488362;31;20076;-81
2022/06/06 11:14:02;;;;;;;6.82;3.00;;;;;;;27.89;25.65;98705.63;4491813;31;20084;-82
2022/06/06 11:16:33;;;;;;;7.78;2.60;;;;;;;27.69;25.13;98705.44;4498192;31;20092;-82
2022/06/06 11:19:49;;;;;;;6.65;2.90;;;;;;;27.99;24.36;98703.41;4490936;31;20085;-82
2022/06/06 11:22:29;;;;;;;7.12;2.58;;;;;;;28.13;24.05;98699.75;4487673;31;20131;-82
2022/06/06 11:25:10;;;;;;;4.85;2.10;;;;;;;28.30;23.42;98699.41;4486932;31;20151;-82
2022/06/06 11:27:35;;;;;;;5.10;2.28;;;;;;;28.33;22.07;98704.44;4500590;31;20447;-82
2022/06/06 11:30:07;;;;;;;5.45;2.45;;;;;;;28.44;22.15;98704.72;4488567;31;20072;-84
2022/06/06 11:33:10;;;;;;;7.25;3.12;;;;;;;28.49;22.92;98697.84;4499389;31;20117;-83
2022/06/06 11:35:41;;;;;;;9.35;2.95;;;;;;;28.43;25.30;98699.47;4497169;31;20205;-82
2022/06/06 11:38:31;;;;;;;7.87;3.17;;;;;;;28.51;25.97;98690.34;4490004;31;20111;-81
2022/06/06 11:41:15;;;;;;;7.82;3.12;;;;;;;28.50;24.89;98694.12;4489009;31;20376;-82
2022/06/06 11:43:59;;;;;;;8.63;3.40;;;;;;;28.62;26.29;98689.81;4497257;31;20119;-83
2022/06/06 11:46:49;;;;;;;7.70;3.25;;;;;;;28.56;25.55;98687.91;4500969;31;20160;-83
2022/06/06 11:49:42;;;;;;;8.07;3.25;;;;;;;28.63;26.01;98684.19;4488871;31;20159;-83
2022/06/06 11:52:20;;;;;;;8.57;3.20;;;;;;;28.60;26.38;98686.47;4489944;31;20456;-83
2022/06/06 11:55:07;;;;;;;7.07;3.10;;;;;;;28.53;25.88;98686.44;4487207;32;20140;-83
2022/06/06 11:57:47;;;;;;;7.82;3.00;;;;;;;28.42;26.01;98678.84;4496195;31;20104;-83
2022/06/06 12:00:54;;;;;;;5.60;2.58;;;;;;;28.58;24.70;98675.81;4491948;31;20118;-82
2022/06/06 12:03:26;;;;;;;8.55;3.00;;;;;;;28.64;24.70;98679.59;4493869;31;20114;-84
2022/06/06 12:06:14;;;;;;;8.60;3.35;;;;;;;28.50;25.76;98683.28;4496641;31;20132;-83
2022/06/06 12:08:40;;;;;;;8.32;3.28;;;;;;;28.43;25.61;98670.53;4486829;32;20511;-84
2022/06/06 12:11:20;;;;;;;6.15;2.85;;;;;;;28.33;25.68;98661.09;4493148;31;20084;-85
2022/06/06 12:13:54;;;;;;;7.07;2.95;;;;;;;28.37;25.75;98668.59;4495853;31;20092;-82
2022/06/06 12:16:40;;;;;;;8.10;3.20;;;;;;;28.46;27.36;98660.34;4494358;31;20392;-82
2022/06/06 12:19:30;;;;;;;6.70;3.00;;;;;;;28.54;27.59;98663.72;4494838;31;20206;-82
2022/06/06 12:22:17;;;;;;;7.95;3.33;;;;;;;28.65;26.25;98656.88;4498957;31;20151;-83
2022/06/06 12:24:46;;;;;;;8.52;3.30;;;;;;;28.63;26.36;98664.38;4486781;32;20182;-83
2022/06/06 12:27:17;;;;;;;7.78;3.78;;;;;;;28.73;25.16;98651.28;4494056;31;20148;-84
2022/06/06 12:30:01;;;;;;;6.78;2.80;;;;;;;28.65;25.64;98648.75;4492338;31;20096;-84
2022/06/06 12:32:50;;;;;;;7.07;2.97;;;;;;;28.65;25.03;98643.34;4500487;31;20114;-82
2022/06/06 12:35:21;;;;;;;5.75;2.75;;;;;;;28.59;24.35;98636.03;4488056;31;20088;-83
2022/06/06 12:38:05;;;;;;;6.32;2.72;;;;;;;28.54;25.08;98646.63;4492134;31;20159;-82
2022/06/06 12:41:01;;;;;;;7.45;2.72;;;;;;;28.81;24.48;98644.81;4498582;31;20123;-83
2022/06/06 12:43:53;;;;;;;7.80;2.92;;;;;;;28.92;24.70;98646.13;4493615;31;20114;-83